sensor_id;sensor_type;location;lat;lon;timestamp;temperature;humidity
67354;SHT30;54238;52.278;21.056;2024-02-26T00:00:12;9.82;68.57
67354;SHT30;54238;52.278;21.056;2024-02-26T00:03:03;9.82;68.52
67354;SHT30;54238;52.278;21.056;2024-02-26T00:05:35;9.82;68.63
67354;SHT30;54238;52.278;21.056;2024-02-26T00:08:04;9.80;68.69
67354;SHT30;54238;52.278;21.056;2024-02-26T00:10:32;9.78;68.76
67354;SHT30;54238;52.278;21.056;2024-02-26T00:13:02;9.74;68.96
67354;SHT30;54238;52.278;21.056;2024-02-26T00:15:33;9.72;69.14
67354;SHT30;54238;52.278;21.056;2024-02-26T00:18:04;9.68;69.13
67354;SHT30;54238;52.278;21.056;2024-02-26T00:20:33;9.65;69.23
67354;SHT30;54238;52.278;21.056;2024-02-26T00:23:09;9.64;69.26
67354;SHT30;54238;52.278;21.056;2024-02-26T00:25:43;9.64;69.37
67354;SHT30;54238;52.278;21.056;2024-02-26T00:28:15;9.65;69.45
67354;SHT30;54238;52.278;21.056;2024-02-26T00:30:42;9.60;69.43
67354;SHT30;54238;52.278;21.056;2024-02-26T00:33:11;9.55;69.56
67354;SHT30;54238;52.278;21.056;2024-02-26T00:35:41;9.50;69.77
67354;SHT30;54238;52.278;21.056;2024-02-26T00:38:08;9.47;70.02
67354;SHT30;54238;52.278;21.056;2024-02-26T00:40:35;9.41;70.26
67354;SHT30;54238;52.278;21.056;2024-02-26T00:43:05;9.36;70.46
67354;SHT30;54238;52.278;21.056;2024-02-26T00:45:33;9.32;70.54
67354;SHT30;54238;52.278;21.056;2024-02-26T00:48:00;9.27;70.65
67354;SHT30;54238;52.278;21.056;2024-02-26T00:50:34;9.23;70.80
67354;SHT30;54238;52.278;21.056;2024-02-26T00:53:01;9.20;71.03
67354;SHT30;54238;52.278;21.056;2024-02-26T00:55:35;9.16;71.24
67354;SHT30;54238;52.278;21.056;2024-02-26T00:58:02;9.13;71.35
67354;SHT30;54238;52.278;21.056;2024-02-26T01:00:29;9.09;71.45
67354;SHT30;54238;52.278;21.056;2024-02-26T01:02:58;9.08;71.60
67354;SHT30;54238;52.278;21.056;2024-02-26T01:05:27;9.05;71.70
67354;SHT30;54238;52.278;21.056;2024-02-26T01:07:56;9.02;71.82
67354;SHT30;54238;52.278;21.056;2024-02-26T01:10:25;9.01;72.05
67354;SHT30;54238;52.278;21.056;2024-02-26T01:12:55;8.97;72.12
67354;SHT30;54238;52.278;21.056;2024-02-26T01:15:22;8.95;72.22
67354;SHT30;54238;52.278;21.056;2024-02-26T01:17:53;8.95;72.14
67354;SHT30;54238;52.278;21.056;2024-02-26T01:20:23;8.93;72.19
67354;SHT30;54238;52.278;21.056;2024-02-26T01:22:52;8.93;72.20
67354;SHT30;54238;52.278;21.056;2024-02-26T01:25:24;8.90;72.26
67354;SHT30;54238;52.278;21.056;2024-02-26T01:27:53;8.86;72.33
67354;SHT30;54238;52.278;21.056;2024-02-26T01:30:28;8.85;72.51
67354;SHT30;54238;52.278;21.056;2024-02-26T01:32:55;8.84;72.45
67354;SHT30;54238;52.278;21.056;2024-02-26T01:35:26;8.83;72.53
67354;SHT30;54238;52.278;21.056;2024-02-26T01:37:55;8.82;72.60
67354;SHT30;54238;52.278;21.056;2024-02-26T01:40:26;8.80;72.65
67354;SHT30;54238;52.278;21.056;2024-02-26T01:43:01;8.78;72.93
67354;SHT30;54238;52.278;21.056;2024-02-26T01:45:31;8.73;73.25
67354;SHT30;54238;52.278;21.056;2024-02-26T01:48:00;8.68;73.39
67354;SHT30;54238;52.278;21.056;2024-02-26T01:50:35;8.64;73.50
67354;SHT30;54238;52.278;21.056;2024-02-26T01:53:04;8.61;73.53
67354;SHT30;54238;52.278;21.056;2024-02-26T01:55:34;8.60;73.54
67354;SHT30;54238;52.278;21.056;2024-02-26T01:58:04;8.60;73.56
67354;SHT30;54238;52.278;21.056;2024-02-26T02:00:36;8.58;73.69
67354;SHT30;54238;52.278;21.056;2024-02-26T02:03:08;8.57;73.68
67354;SHT30;54238;52.278;21.056;2024-02-26T02:05:37;8.54;73.78
67354;SHT30;54238;52.278;21.056;2024-02-26T02:08:11;8.53;73.76
67354;SHT30;54238;52.278;21.056;2024-02-26T02:10:38;8.52;73.84
67354;SHT30;54238;52.278;21.056;2024-02-26T02:13:10;8.50;73.77
67354;SHT30;54238;52.278;21.056;2024-02-26T02:15:40;8.50;73.80
67354;SHT30;54238;52.278;21.056;2024-02-26T02:18:09;8.49;73.84
67354;SHT30;54238;52.278;21.056;2024-02-26T02:20:38;8.45;73.92
67354;SHT30;54238;52.278;21.056;2024-02-26T02:23:10;8.41;73.97
67354;SHT30;54238;52.278;21.056;2024-02-26T02:25:37;8.37;74.12
67354;SHT30;54238;52.278;21.056;2024-02-26T02:28:07;8.34;74.44
67354;SHT30;54238;52.278;21.056;2024-02-26T02:30:34;8.30;74.74
67354;SHT30;54238;52.278;21.056;2024-02-26T02:33:04;8.25;74.82
67354;SHT30;54238;52.278;21.056;2024-02-26T02:35:34;8.22;75.01
67354;SHT30;54238;52.278;21.056;2024-02-26T02:38:01;8.20;75.10
67354;SHT30;54238;52.278;21.056;2024-02-26T02:40:30;8.19;75.13
67354;SHT30;54238;52.278;21.056;2024-02-26T02:42:59;8.16;75.19
67354;SHT30;54238;52.278;21.056;2024-02-26T02:45:31;8.14;75.25
67354;SHT30;54238;52.278;21.056;2024-02-26T02:47:58;8.14;75.26
67354;SHT30;54238;52.278;21.056;2024-02-26T02:50:30;8.12;75.30
67354;SHT30;54238;52.278;21.056;2024-02-26T02:53:02;8.12;75.34
67354;SHT30;54238;52.278;21.056;2024-02-26T02:55:32;8.13;75.34
67354;SHT30;54238;52.278;21.056;2024-02-26T02:58:09;8.12;75.39
67354;SHT30;54238;52.278;21.056;2024-02-26T03:00:36;8.09;75.46
67354;SHT30;54238;52.278;21.056;2024-02-26T03:03:05;8.06;75.57
67354;SHT30;54238;52.278;21.056;2024-02-26T03:05:32;8.05;75.77
67354;SHT30;54238;52.278;21.056;2024-02-26T03:08:02;8.03;75.89
67354;SHT30;54238;52.278;21.056;2024-02-26T03:10:32;8.01;75.97
67354;SHT30;54238;52.278;21.056;2024-02-26T03:13:02;7.98;76.10
67354;SHT30;54238;52.278;21.056;2024-02-26T03:15:31;7.95;76.19
67354;SHT30;54238;52.278;21.056;2024-02-26T03:18:03;7.92;76.35
67354;SHT30;54238;52.278;21.056;2024-02-26T03:20:32;7.89;76.47
67354;SHT30;54238;52.278;21.056;2024-02-26T03:23:04;7.87;76.69
67354;SHT30;54238;52.278;21.056;2024-02-26T03:25:33;7.84;76.82
67354;SHT30;54238;52.278;21.056;2024-02-26T03:28:02;7.83;76.88
67354;SHT30;54238;52.278;21.056;2024-02-26T03:30:35;7.81;76.94
67354;SHT30;54238;52.278;21.056;2024-02-26T03:33:02;7.80;77.05
67354;SHT30;54238;52.278;21.056;2024-02-26T03:35:34;7.79;77.07
67354;SHT30;54238;52.278;21.056;2024-02-26T03:38:04;7.79;77.11
67354;SHT30;54238;52.278;21.056;2024-02-26T03:40:38;7.79;77.23
67354;SHT30;54238;52.278;21.056;2024-02-26T03:43:04;7.77;77.30
67354;SHT30;54238;52.278;21.056;2024-02-26T03:45:42;7.76;77.38
67354;SHT30;54238;52.278;21.056;2024-02-26T03:48:11;7.76;77.41
67354;SHT30;54238;52.278;21.056;2024-02-26T03:50:40;7.74;77.57
67354;SHT30;54238;52.278;21.056;2024-02-26T03:53:07;7.74;77.77
67354;SHT30;54238;52.278;21.056;2024-02-26T03:55:35;7.72;77.89
67354;SHT30;54238;52.278;21.056;2024-02-26T03:58:08;7.70;77.95
67354;SHT30;54238;52.278;21.056;2024-02-26T04:00:35;7.69;78.01
67354;SHT30;54238;52.278;21.056;2024-02-26T04:03:06;7.68;78.12
67354;SHT30;54238;52.278;21.056;2024-02-26T04:05:35;7.69;78.18
67354;SHT30;54238;52.278;21.056;2024-02-26T04:08:02;7.69;78.28
67354;SHT30;54238;52.278;21.056;2024-02-26T04:10:33;7.69;78.28
67354;SHT30;54238;52.278;21.056;2024-02-26T04:13:26;7.67;78.30
67354;SHT30;54238;52.278;21.056;2024-02-26T04:15:54;7.68;78.42
67354;SHT30;54238;52.278;21.056;2024-02-26T04:18:21;7.67;78.47
67354;SHT30;54238;52.278;21.056;2024-02-26T04:20:51;7.67;78.55
67354;SHT30;54238;52.278;21.056;2024-02-26T04:23:21;7.66;78.59
67354;SHT30;54238;52.278;21.056;2024-02-26T04:25:51;7.66;78.65
67354;SHT30;54238;52.278;21.056;2024-02-26T04:28:22;7.64;78.69
67354;SHT30;54238;52.278;21.056;2024-02-26T04:30:52;7.65;78.70
67354;SHT30;54238;52.278;21.056;2024-02-26T04:33:19;7.64;78.71
67354;SHT30;54238;52.278;21.056;2024-02-26T04:35:48;7.64;78.67
67354;SHT30;54238;52.278;21.056;2024-02-26T04:38:18;7.63;78.61
67354;SHT30;54238;52.278;21.056;2024-02-26T04:40:45;7.63;78.67
67354;SHT30;54238;52.278;21.056;2024-02-26T04:43:13;7.63;78.60
67354;SHT30;54238;52.278;21.056;2024-02-26T04:45:43;7.63;78.51
67354;SHT30;54238;52.278;21.056;2024-02-26T04:48:17;7.64;78.58
67354;SHT30;54238;52.278;21.056;2024-02-26T04:50:44;7.66;78.60
67354;SHT30;54238;52.278;21.056;2024-02-26T04:53:11;7.65;78.60
67354;SHT30;54238;52.278;21.056;2024-02-26T04:55:41;7.64;78.51
67354;SHT30;54238;52.278;21.056;2024-02-26T04:58:08;7.62;78.50
67354;SHT30;54238;52.278;21.056;2024-02-26T05:00:40;7.59;78.49
67354;SHT30;54238;52.278;21.056;2024-02-26T05:03:09;7.58;78.52
67354;SHT30;54238;52.278;21.056;2024-02-26T05:05:39;7.56;78.59
67354;SHT30;54238;52.278;21.056;2024-02-26T05:08:09;7.57;78.75
67354;SHT30;54238;52.278;21.056;2024-02-26T05:10:39;7.56;78.92
67354;SHT30;54238;52.278;21.056;2024-02-26T05:13:07;7.55;78.92
67354;SHT30;54238;52.278;21.056;2024-02-26T05:15:39;7.53;79.00
67354;SHT30;54238;52.278;21.056;2024-02-26T05:18:09;7.52;79.14
67354;SHT30;54238;52.278;21.056;2024-02-26T05:20:36;7.51;79.15
67354;SHT30;54238;52.278;21.056;2024-02-26T05:23:04;7.51;79.16
67354;SHT30;54238;52.278;21.056;2024-02-26T05:25:31;7.51;79.19
67354;SHT30;54238;52.278;21.056;2024-02-26T05:28:05;7.51;79.27
67354;SHT30;54238;52.278;21.056;2024-02-26T05:30:32;7.53;79.33
67354;SHT30;54238;52.278;21.056;2024-02-26T05:32:59;7.52;79.46
67354;SHT30;54238;52.278;21.056;2024-02-26T05:35:31;7.53;79.52
67354;SHT30;54238;52.278;21.056;2024-02-26T05:37:58;7.55;79.55
67354;SHT30;54238;52.278;21.056;2024-02-26T05:40:30;7.57;79.41
67354;SHT30;54238;52.278;21.056;2024-02-26T05:42:59;7.59;79.42
67354;SHT30;54238;52.278;21.056;2024-02-26T05:45:26;7.64;79.37
67354;SHT30;54238;52.278;21.056;2024-02-26T05:47:58;7.66;79.23
67354;SHT30;54238;52.278;21.056;2024-02-26T05:50:27;7.71;79.32
67354;SHT30;54238;52.278;21.056;2024-02-26T05:52:57;7.74;79.24
67354;SHT30;54238;52.278;21.056;2024-02-26T05:55:24;7.78;79.08
67354;SHT30;54238;52.278;21.056;2024-02-26T05:57:56;7.82;78.92
67354;SHT30;54238;52.278;21.056;2024-02-26T06:00:25;7.82;78.73
67354;SHT30;54238;52.278;21.056;2024-02-26T06:02:53;7.80;78.67
67354;SHT30;54238;52.278;21.056;2024-02-26T06:05:20;7.78;78.71
67354;SHT30;54238;52.278;21.056;2024-02-26T06:07:49;7.77;78.78
67354;SHT30;54238;52.278;21.056;2024-02-26T06:10:16;7.76;78.82
67354;SHT30;54238;52.278;21.056;2024-02-26T06:12:47;7.76;78.89
67354;SHT30;54238;52.278;21.056;2024-02-26T06:15:21;7.77;78.97
67354;SHT30;54238;52.278;21.056;2024-02-26T06:17:51;7.80;78.92
67354;SHT30;54238;52.278;21.056;2024-02-26T06:20:18;7.83;78.88
67354;SHT30;54238;52.278;21.056;2024-02-26T06:22:45;7.86;78.79
67354;SHT30;54238;52.278;21.056;2024-02-26T06:25:12;7.89;78.83
67354;SHT30;54238;52.278;21.056;2024-02-26T06:27:44;7.93;78.99
67354;SHT30;54238;52.278;21.056;2024-02-26T06:30:13;7.95;78.97
67354;SHT30;54238;52.278;21.056;2024-02-26T06:32:43;8.00;78.96
67354;SHT30;54238;52.278;21.056;2024-02-26T06:35:12;8.04;78.95
67354;SHT30;54238;52.278;21.056;2024-02-26T06:37:42;8.06;78.77
67354;SHT30;54238;52.278;21.056;2024-02-26T06:40:11;8.08;78.74
67354;SHT30;54238;52.278;21.056;2024-02-26T06:42:39;8.12;78.70
67354;SHT30;54238;52.278;21.056;2024-02-26T06:45:10;8.15;78.60
67354;SHT30;54238;52.278;21.056;2024-02-26T06:47:37;8.20;78.51
67354;SHT30;54238;52.278;21.056;2024-02-26T06:50:06;8.26;78.44
67354;SHT30;54238;52.278;21.056;2024-02-26T06:52:34;8.30;78.31
67354;SHT30;54238;52.278;21.056;2024-02-26T06:55:03;8.33;78.20
67354;SHT30;54238;52.278;21.056;2024-02-26T06:57:31;8.35;78.20
67354;SHT30;54238;52.278;21.056;2024-02-26T07:00:01;8.40;78.18
67354;SHT30;54238;52.278;21.056;2024-02-26T07:02:33;8.44;78.10
67354;SHT30;54238;52.278;21.056;2024-02-26T07:05:00;8.50;78.03
67354;SHT30;54238;52.278;21.056;2024-02-26T07:07:34;8.55;77.94
67354;SHT30;54238;52.278;21.056;2024-02-26T07:10:01;8.58;77.88
67354;SHT30;54238;52.278;21.056;2024-02-26T07:12:32;8.61;77.76
67354;SHT30;54238;52.278;21.056;2024-02-26T07:15:00;8.61;77.74
67354;SHT30;54238;52.278;21.056;2024-02-26T07:17:32;8.63;77.73
67354;SHT30;54238;52.278;21.056;2024-02-26T07:20:02;8.66;77.79
67354;SHT30;54238;52.278;21.056;2024-02-26T07:22:34;8.69;77.75
67354;SHT30;54238;52.278;21.056;2024-02-26T07:25:06;8.74;77.72
67354;SHT30;54238;52.278;21.056;2024-02-26T07:27:38;8.79;77.70
67354;SHT30;54238;52.278;21.056;2024-02-26T07:30:10;8.84;77.69
67354;SHT30;54238;52.278;21.056;2024-02-26T07:32:42;8.92;77.63
67354;SHT30;54238;52.278;21.056;2024-02-26T07:35:12;8.98;77.50
67354;SHT30;54238;52.278;21.056;2024-02-26T07:37:39;9.07;77.60
67354;SHT30;54238;52.278;21.056;2024-02-26T07:40:11;9.18;77.59
67354;SHT30;54238;52.278;21.056;2024-02-26T07:42:38;9.33;77.60
67354;SHT30;54238;52.278;21.056;2024-02-26T07:45:10;9.54;77.48
67354;SHT30;54238;52.278;21.056;2024-02-26T07:47:42;9.77;77.25
67354;SHT30;54238;52.278;21.056;2024-02-26T07:50:10;10.03;76.65
67354;SHT30;54238;52.278;21.056;2024-02-26T07:52:44;10.26;76.18
67354;SHT30;54238;52.278;21.056;2024-02-26T07:55:13;10.49;75.52
67354;SHT30;54238;52.278;21.056;2024-02-26T07:57:43;10.73;75.20
67354;SHT30;54238;52.278;21.056;2024-02-26T08:00:23;10.98;74.59
67354;SHT30;54238;52.278;21.056;2024-02-26T08:02:52;11.18;74.05
67354;SHT30;54238;52.278;21.056;2024-02-26T08:05:27;11.35;73.49
67354;SHT30;54238;52.278;21.056;2024-02-26T08:07:56;11.50;72.86
67354;SHT30;54238;52.278;21.056;2024-02-26T08:10:25;11.67;72.65
67354;SHT30;54238;52.278;21.056;2024-02-26T08:12:59;11.84;71.95
67354;SHT30;54238;52.278;21.056;2024-02-26T08:15:34;11.99;71.46
67354;SHT30;54238;52.278;21.056;2024-02-26T08:18:04;12.17;71.12
67354;SHT30;54238;52.278;21.056;2024-02-26T08:20:39;12.34;70.38
67354;SHT30;54238;52.278;21.056;2024-02-26T08:23:08;12.45;70.08
67354;SHT30;54238;52.278;21.056;2024-02-26T08:25:35;12.63;69.91
67354;SHT30;54238;52.278;21.056;2024-02-26T08:28:04;12.81;69.43
67354;SHT30;54238;52.278;21.056;2024-02-26T08:30:32;12.99;68.90
67354;SHT30;54238;52.278;21.056;2024-02-26T08:33:03;13.12;68.24
67354;SHT30;54238;52.278;21.056;2024-02-26T08:35:33;13.21;67.83
67354;SHT30;54238;52.278;21.056;2024-02-26T08:38:05;13.34;67.46
67354;SHT30;54238;52.278;21.056;2024-02-26T08:40:34;13.45;67.31
67354;SHT30;54238;52.278;21.056;2024-02-26T08:43:06;13.63;67.12
67354;SHT30;54238;52.278;21.056;2024-02-26T08:45:33;13.80;66.58
67354;SHT30;54238;52.278;21.056;2024-02-26T08:48:02;13.97;65.91
67354;SHT30;54238;52.278;21.056;2024-02-26T08:50:29;14.10;65.70
67354;SHT30;54238;52.278;21.056;2024-02-26T08:52:59;14.24;65.51
67354;SHT30;54238;52.278;21.056;2024-02-26T08:55:30;14.44;64.90
67354;SHT30;54238;52.278;21.056;2024-02-26T08:58:02;14.67;64.74
67354;SHT30;54238;52.278;21.056;2024-02-26T09:00:32;14.93;64.03
67354;SHT30;54238;52.278;21.056;2024-02-26T09:02:59;15.18;63.57
67354;SHT30;54238;52.278;21.056;2024-02-26T09:05:26;15.43;62.96
67354;SHT30;54238;52.278;21.056;2024-02-26T09:07:53;15.65;61.93
67354;SHT30;54238;52.278;21.056;2024-02-26T09:10:22;15.80;61.43
67354;SHT30;54238;52.278;21.056;2024-02-26T09:12:49;15.93;61.14
67354;SHT30;54238;52.278;21.056;2024-02-26T09:15:16;16.08;60.24
67354;SHT30;54238;52.278;21.056;2024-02-26T09:17:43;16.16;59.71
67354;SHT30;54238;52.278;21.056;2024-02-26T09:20:11;16.13;59.45
67354;SHT30;54238;52.278;21.056;2024-02-26T09:22:41;16.10;59.60
67354;SHT30;54238;52.278;21.056;2024-02-26T09:25:10;16.29;59.44
67354;SHT30;54238;52.278;21.056;2024-02-26T09:27:37;16.42;59.01
67354;SHT30;54238;52.278;21.056;2024-02-26T09:30:07;16.65;58.23
67354;SHT30;54238;52.278;21.056;2024-02-26T09:32:35;16.76;57.81
67354;SHT30;54238;52.278;21.056;2024-02-26T09:35:09;16.64;57.62
67354;SHT30;54238;52.278;21.056;2024-02-26T09:37:39;16.54;58.01
67354;SHT30;54238;52.278;21.056;2024-02-26T09:40:06;16.44;58.08
67354;SHT30;54238;52.278;21.056;2024-02-26T09:42:37;16.57;58.45
67354;SHT30;54238;52.278;21.056;2024-02-26T09:45:20;16.73;57.88
67354;SHT30;54238;52.278;21.056;2024-02-26T09:47:51;16.56;57.79
67354;SHT30;54238;52.278;21.056;2024-02-26T09:50:21;16.42;57.98
67354;SHT30;54238;52.278;21.056;2024-02-26T09:52:52;16.25;58.34
67354;SHT30;54238;52.278;21.056;2024-02-26T09:55:24;16.11;58.66
67354;SHT30;54238;52.278;21.056;2024-02-26T09:57:55;16.01;59.01
67354;SHT30;54238;52.278;21.056;2024-02-26T10:00:27;15.96;59.39
67354;SHT30;54238;52.278;21.056;2024-02-26T10:03:03;15.88;59.48
67354;SHT30;54238;52.278;21.056;2024-02-26T10:05:42;15.71;59.59
67354;SHT30;54238;52.278;21.056;2024-02-26T10:08:15;15.54;59.88
67354;SHT30;54238;52.278;21.056;2024-02-26T10:10:48;15.33;60.30
67354;SHT30;54238;52.278;21.056;2024-02-26T10:13:16;15.12;60.75
67354;SHT30;54238;52.278;21.056;2024-02-26T10:15:43;14.87;61.29
67354;SHT30;54238;52.278;21.056;2024-02-26T10:18:13;14.65;61.89
67354;SHT30;54238;52.278;21.056;2024-02-26T10:21:03;14.47;62.36
67354;SHT30;54238;52.278;21.056;2024-02-26T10:23:30;14.29;62.83
67354;SHT30;54238;52.278;21.056;2024-02-26T10:26:03;14.15;63.14
67354;SHT30;54238;52.278;21.056;2024-02-26T10:28:30;14.01;63.49
67354;SHT30;54238;52.278;21.056;2024-02-26T10:31:00;13.93;63.85
67354;SHT30;54238;52.278;21.056;2024-02-26T10:33:27;13.79;64.26
67354;SHT30;54238;52.278;21.056;2024-02-26T10:35:58;13.70;64.60
67354;SHT30;54238;52.278;21.056;2024-02-26T10:38:25;13.59;64.91
67354;SHT30;54238;52.278;21.056;2024-02-26T10:40:58;13.51;65.18
67354;SHT30;54238;52.278;21.056;2024-02-26T10:43:25;13.54;65.46
67354;SHT30;54238;52.278;21.056;2024-02-26T10:45:54;13.60;65.33
67354;SHT30;54238;52.278;21.056;2024-02-26T10:48:22;13.65;65.31
67354;SHT30;54238;52.278;21.056;2024-02-26T10:50:52;13.65;65.21
67354;SHT30;54238;52.278;21.056;2024-02-26T10:53:20;13.59;65.23
67354;SHT30;54238;52.278;21.056;2024-02-26T10:55:52;13.54;65.41
67354;SHT30;54238;52.278;21.056;2024-02-26T10:58:26;13.48;65.59
67354;SHT30;54238;52.278;21.056;2024-02-26T11:00:56;13.43;65.85
67354;SHT30;54238;52.278;21.056;2024-02-26T11:03:27;13.45;65.96
67354;SHT30;54238;52.278;21.056;2024-02-26T11:06:01;13.47;65.99
67354;SHT30;54238;52.278;21.056;2024-02-26T11:08:33;13.56;66.02
67354;SHT30;54238;52.278;21.056;2024-02-26T11:11:03;13.89;65.74
67354;SHT30;54238;52.278;21.056;2024-02-26T11:13:32;14.49;65.25
67354;SHT30;54238;52.278;21.056;2024-02-26T11:16:06;15.44;63.62
67354;SHT30;54238;52.278;21.056;2024-02-26T11:18:36;16.19;61.60
67354;SHT30;54238;52.278;21.056;2024-02-26T11:21:10;17.09;59.81
67354;SHT30;54238;52.278;21.056;2024-02-26T11:23:41;18.31;57.08
67354;SHT30;54238;52.278;21.056;2024-02-26T11:26:09;19.53;53.38
67354;SHT30;54238;52.278;21.056;2024-02-26T11:28:43;20.58;50.64
67354;SHT30;54238;52.278;21.056;2024-02-26T11:31:13;21.57;48.46
67354;SHT30;54238;52.278;21.056;2024-02-26T11:33:44;21.86;46.66
67354;SHT30;54238;52.278;21.056;2024-02-26T11:36:13;22.40;44.92
67354;SHT30;54238;52.278;21.056;2024-02-26T11:38:51;22.82;43.90
67354;SHT30;54238;52.278;21.056;2024-02-26T11:41:21;23.42;42.41
67354;SHT30;54238;52.278;21.056;2024-02-26T11:46:38;24.23;40.52
67354;SHT30;54238;52.278;21.056;2024-02-26T11:51:57;23.85;39.82
67354;SHT30;54238;52.278;21.056;2024-02-26T11:59:53;22.86;40.84
67354;SHT30;54238;52.278;21.056;2024-02-26T12:05:16;23.50;39.48
67354;SHT30;54238;52.278;21.056;2024-02-26T12:07:53;24.04;39.19
67354;SHT30;54238;52.278;21.056;2024-02-26T12:10:33;24.51;38.58
67354;SHT30;54238;52.278;21.056;2024-02-26T12:15:44;26.02;36.59
67354;SHT30;54238;52.278;21.056;2024-02-26T12:18:21;26.61;35.62
67354;SHT30;54238;52.278;21.056;2024-02-26T12:21:00;26.69;34.98
67354;SHT30;54238;52.278;21.056;2024-02-26T12:23:29;26.51;35.33
67354;SHT30;54238;52.278;21.056;2024-02-26T12:26:01;27.15;34.36
67354;SHT30;54238;52.278;21.056;2024-02-26T12:28:31;27.67;34.00
67354;SHT30;54238;52.278;21.056;2024-02-26T12:30:58;28.06;31.85
67354;SHT30;54238;52.278;21.056;2024-02-26T12:33:28;28.28;31.80
67354;SHT30;54238;52.278;21.056;2024-02-26T12:35:59;28.71;32.01
67354;SHT30;54238;52.278;21.056;2024-02-26T12:38:28;29.15;31.36
67354;SHT30;54238;52.278;21.056;2024-02-26T12:40:59;29.55;30.31
67354;SHT30;54238;52.278;21.056;2024-02-26T12:43:26;29.65;29.99
67354;SHT30;54238;52.278;21.056;2024-02-26T12:45:53;29.62;29.44
67354;SHT30;54238;52.278;21.056;2024-02-26T12:48:22;29.70;29.70
67354;SHT30;54238;52.278;21.056;2024-02-26T12:50:52;29.62;29.61
67354;SHT30;54238;52.278;21.056;2024-02-26T12:53:19;29.49;29.22
67354;SHT30;54238;52.278;21.056;2024-02-26T12:55:49;29.47;29.36
67354;SHT30;54238;52.278;21.056;2024-02-26T12:58:16;29.57;29.70
67354;SHT30;54238;52.278;21.056;2024-02-26T13:00:46;29.76;29.24
67354;SHT30;54238;52.278;21.056;2024-02-26T13:03:17;29.78;28.97
67354;SHT30;54238;52.278;21.056;2024-02-26T13:05:47;29.90;29.03
67354;SHT30;54238;52.278;21.056;2024-02-26T13:08:23;30.23;28.93
67354;SHT30;54238;52.278;21.056;2024-02-26T13:10:52;30.61;28.89
67354;SHT30;54238;52.278;21.056;2024-02-26T13:13:24;30.87;27.50
67354;SHT30;54238;52.278;21.056;2024-02-26T13:16:01;30.77;27.27
67354;SHT30;54238;52.278;21.056;2024-02-26T13:18:30;30.87;27.90
67354;SHT30;54238;52.278;21.056;2024-02-26T13:21:07;31.42;27.85
67354;SHT30;54238;52.278;21.056;2024-02-26T13:23:42;31.80;26.96
67354;SHT30;54238;52.278;21.056;2024-02-26T13:26:13;31.98;26.41
67354;SHT30;54238;52.278;21.056;2024-02-26T13:28:42;31.92;25.95
67354;SHT30;54238;52.278;21.056;2024-02-26T13:31:16;31.88;25.55
67354;SHT30;54238;52.278;21.056;2024-02-26T13:33:44;31.87;25.81
67354;SHT30;54238;52.278;21.056;2024-02-26T13:36:13;31.88;25.41
67354;SHT30;54238;52.278;21.056;2024-02-26T13:38:51;31.97;25.83
67354;SHT30;54238;52.278;21.056;2024-02-26T13:41:19;32.20;25.62
67354;SHT30;54238;52.278;21.056;2024-02-26T13:43:50;32.23;25.13
67354;SHT30;54238;52.278;21.056;2024-02-26T13:46:19;32.19;24.48
67354;SHT30;54238;52.278;21.056;2024-02-26T13:48:46;31.75;24.68
67354;SHT30;54238;52.278;21.056;2024-02-26T13:51:14;31.27;25.38
67354;SHT30;54238;52.278;21.056;2024-02-26T13:53:41;31.09;25.44
67354;SHT30;54238;52.278;21.056;2024-02-26T13:56:15;30.90;25.89
67354;SHT30;54238;52.278;21.056;2024-02-26T13:58:42;30.85;26.13
67354;SHT30;54238;52.278;21.056;2024-02-26T14:01:09;30.93;26.28
67354;SHT30;54238;52.278;21.056;2024-02-26T14:03:39;31.15;25.86
67354;SHT30;54238;52.278;21.056;2024-02-26T14:06:06;31.20;25.55
67354;SHT30;54238;52.278;21.056;2024-02-26T14:08:36;31.27;25.66
67354;SHT30;54238;52.278;21.056;2024-02-26T14:11:03;31.29;25.84
67354;SHT30;54238;52.278;21.056;2024-02-26T14:13:30;31.09;25.87
67354;SHT30;54238;52.278;21.056;2024-02-26T14:15:57;30.76;26.31
67354;SHT30;54238;52.278;21.056;2024-02-26T14:18:24;30.25;26.55
67354;SHT30;54238;52.278;21.056;2024-02-26T14:20:54;29.58;27.31
67354;SHT30;54238;52.278;21.056;2024-02-26T14:23:21;29.09;27.82
67354;SHT30;54238;52.278;21.056;2024-02-26T14:25:48;28.61;28.40
67354;SHT30;54238;52.278;21.056;2024-02-26T14:28:15;28.33;28.34
67354;SHT30;54238;52.278;21.056;2024-02-26T14:30:47;28.02;28.75
67354;SHT30;54238;52.278;21.056;2024-02-26T14:33:16;27.75;29.02
67354;SHT30;54238;52.278;21.056;2024-02-26T14:35:43;27.46;29.46
67354;SHT30;54238;52.278;21.056;2024-02-26T14:38:13;27.23;29.53
67354;SHT30;54238;52.278;21.056;2024-02-26T14:40:42;27.08;29.73
67354;SHT30;54238;52.278;21.056;2024-02-26T14:43:12;26.84;30.01
67354;SHT30;54238;52.278;21.056;2024-02-26T14:45:40;26.52;30.46
67354;SHT30;54238;52.278;21.056;2024-02-26T14:48:09;26.34;30.66
67354;SHT30;54238;52.278;21.056;2024-02-26T14:50:39;26.01;31.12
67354;SHT30;54238;52.278;21.056;2024-02-26T14:53:06;25.58;31.60
67354;SHT30;54238;52.278;21.056;2024-02-26T14:55:33;24.99;32.25
67354;SHT30;54238;52.278;21.056;2024-02-26T14:58:06;24.58;32.97
67354;SHT30;54238;52.278;21.056;2024-02-26T15:00:40;24.10;33.57
67354;SHT30;54238;52.278;21.056;2024-02-26T15:03:14;23.53;34.47
67354;SHT30;54238;52.278;21.056;2024-02-26T15:05:43;23.06;35.25
67354;SHT30;54238;52.278;21.056;2024-02-26T15:08:15;22.64;35.96
67354;SHT30;54238;52.278;21.056;2024-02-26T15:10:45;22.16;36.86
67354;SHT30;54238;52.278;21.056;2024-02-26T15:13:17;21.66;37.92
67354;SHT30;54238;52.278;21.056;2024-02-26T15:15:44;21.26;38.94
67354;SHT30;54238;52.278;21.056;2024-02-26T15:18:14;20.94;39.81
67354;SHT30;54238;52.278;21.056;2024-02-26T15:20:45;20.64;40.53
67354;SHT30;54238;52.278;21.056;2024-02-26T15:23:13;20.38;41.24
67354;SHT30;54238;52.278;21.056;2024-02-26T15:25:46;20.05;42.09
67354;SHT30;54238;52.278;21.056;2024-02-26T15:28:16;19.66;43.04
67354;SHT30;54238;52.278;21.056;2024-02-26T15:30:45;19.30;43.66
67354;SHT30;54238;52.278;21.056;2024-02-26T15:33:12;18.97;44.26
67354;SHT30;54238;52.278;21.056;2024-02-26T15:35:40;18.65;44.98
67354;SHT30;54238;52.278;21.056;2024-02-26T15:38:11;18.36;45.65
67354;SHT30;54238;52.278;21.056;2024-02-26T15:40:43;18.12;46.25
67354;SHT30;54238;52.278;21.056;2024-02-26T15:43:10;17.91;46.89
67354;SHT30;54238;52.278;21.056;2024-02-26T15:45:37;17.68;47.47
67354;SHT30;54238;52.278;21.056;2024-02-26T15:48:04;17.48;48.08
67354;SHT30;54238;52.278;21.056;2024-02-26T15:50:32;17.26;48.66
67354;SHT30;54238;52.278;21.056;2024-02-26T15:53:02;17.04;49.18
67354;SHT30;54238;52.278;21.056;2024-02-26T15:55:29;16.89;49.72